Time;durP1;ratioP1;P1;durP2;ratioP2;P2;SDS_P1;SDS_P2;PMS_P1;PMS_P2;Temp;Humidity;BMP_temperature;BMP_pressure;BME280_temperature;BME280_humidity;BME280_pressure;Samples;Min_cycle;Max_cycle;Signal;HPM_P1;HPM_P2
2023/12/09 00:01:03;;;;;;;;;;;;;;;;;;5104706;28;19943;-80
2023/12/09 00:03:28;;;;;;;;;;;;;;;;;;5103569;28;19915;-80
2023/12/09 00:05:53;;;;;;;;;;;;;;;;;;5104894;28;19908;-80
2023/12/09 00:08:18;;;;;;;;;;;;;;;;;;5104749;28;20315;-79
2023/12/09 00:10:43;;;;;;;;;;;;;;;;;;5106484;28;20377;-80
2023/12/09 00:13:08;;;;;;;;;;;;;;;;;;5106757;28;19930;-80
2023/12/09 00:15:33;;;;;;;;;;;;;;;;;;5107096;28;19908;-80
2023/12/09 00:17:58;;;;;;;;;;;;;;;;;;5106646;28;19989;-80
2023/12/09 00:20:24;;;;;;;;;;;;;;;;;;5107747;28;19947;-81
2023/12/09 00:22:49;;;;;;;;;;;;;;;;;;5106530;28;19935;-80
2023/12/09 00:25:14;;;;;;;;;;;;;;;;;;5105865;28;19908;-80
2023/12/09 00:27:39;;;;;;;;;;;;;;;;;;5107624;28;19908;-80
2023/12/09 00:30:04;;;;;;;;;;;;;;;;;;5107706;28;20354;-80
2023/12/09 00:32:29;;;;;;;;;;;;;;;;;;5106136;28;19909;-80
2023/12/09 00:34:54;;;;;;;;;;;;;;;;;;5107541;28;19919;-80
2023/12/09 00:37:19;;;;;;;;;;;;;;;;;;5106009;28;19916;-80
2023/12/09 00:39:44;;;;;;;;;;;;;;;;;;5105397;28;20352;-80
2023/12/09 00:42:10;;;;;;;;;;;;;;;;;;5105055;28;19909;-80
2023/12/09 00:44:35;;;;;;;;;;;;;;;;;;5102440;28;19919;-81
2023/12/09 00:47:00;;;;;;;;;;;;;;;;;;5105639;28;20208;-80
2023/12/09 00:49:25;;;;;;;;;;;;;;;;;;5105815;28;19908;-80
2023/12/09 00:51:50;;;;;;;;;;;;;;;;;;5104147;28;19947;-80
2023/12/09 00:54:15;;;;;;;;;;;;;;;;;;5101347;28;19919;-80
2023/12/09 00:56:40;;;;;;;;;;;;;;;;;;5105450;28;19908;-80
2023/12/09 00:59:06;;;;;;;;;;;;;;;;;;5107100;28;20006;-80
2023/12/09 01:01:33;;;;;;;;;;;;;;;;;;5098084;28;19955;-80
2023/12/09 01:03:58;;;;;;;;;;;;;;;;;;5107840;28;20373;-80
2023/12/09 01:06:23;;;;;;;;;;;;;;;;;;5105505;28;19936;-80
2023/12/09 01:08:48;;;;;;;;;;;;;;;;;;5106338;28;19914;-80
2023/12/09 01:11:13;;;;;;;;;;;;;;;;;;5107395;28;20015;-79
2023/12/09 01:13:38;;;;;;;;;;;;;;;;;;5107533;28;19954;-80
2023/12/09 01:16:04;;;;;;;;;;;;;;;;;;5106978;28;20346;-80
2023/12/09 01:18:29;;;;;;;;;;;;;;;;;;5106938;28;19916;-80
2023/12/09 01:20:54;;;;;;;;;;;;;;;;;;5103905;28;19912;-81
2023/12/09 01:23:19;;;;;;;;;;;;;;;;;;5101531;28;19908;-81
2023/12/09 01:25:45;;;;;;;;;;;;;;;;;;5106737;28;20007;-80
2023/12/09 01:28:10;;;;;;;;;;;;;;;;;;5105015;28;20435;-80
2023/12/09 01:30:35;;;;;;;;;;;;;;;;;;5105689;28;19912;-80
2023/12/09 01:33:00;;;;;;;;;;;;;;;;;;5105800;28;20335;-80
2023/12/09 01:35:25;;;;;;;;;;;;;;;;;;5105650;28;19941;-80
2023/12/09 01:37:50;;;;;;;;;;;;;;;;;;5107834;28;19989;-80
2023/12/09 01:40:15;;;;;;;;;;;;;;;;;;5106126;28;19908;-80
2023/12/09 01:42:41;;;;;;;;;;;;;;;;;;5104357;28;19968;-80
2023/12/09 01:45:07;;;;;;;;;;;;;;;;;;5099055;28;19912;-80
2023/12/09 01:47:32;;;;;;;;;;;;;;;;;;5103300;28;19912;-80
2023/12/09 01:49:57;;;;;;;;;;;;;;;;;;5105090;28;19915;-79
2023/12/09 01:52:22;;;;;;;;;;;;;;;;;;5106020;28;19969;-80
2023/12/09 01:54:47;;;;;;;;;;;;;;;;;;5100551;28;20011;-81
2023/12/09 01:57:12;;;;;;;;;;;;;;;;;;5104898;28;20001;-81
2023/12/09 01:59:37;;;;;;;;;;;;;;;;;;5105628;28;19954;-80
2023/12/09 02:02:02;;;;;;;;;;;;;;;;;;5104643;28;20310;-81
2023/12/09 02:04:28;;;;;;;;;;;;;;;;;;5105538;28;20003;-80
2023/12/09 02:06:53;;;;;;;;;;;;;;;;;;5104243;28;19911;-80
2023/12/09 02:09:18;;;;;;;;;;;;;;;;;;5103889;28;19908;-80
2023/12/09 02:11:43;;;;;;;;;;;;;;;;;;5105378;28;19915;-80
2023/12/09 02:14:09;;;;;;;;;;;;;;;;;;5102699;28;19913;-81
2023/12/09 02:16:34;;;;;;;;;;;;;;;;;;5096587;28;19909;-80
2023/12/09 02:18:59;;;;;;;;;;;;;;;;;;5099273;28;20316;-80
2023/12/09 02:21:25;;;;;;;;;;;;;;;;;;5101831;28;19908;-81
2023/12/09 02:23:50;;;;;;;;;;;;;;;;;;5098870;28;19938;-80
2023/12/09 02:26:15;;;;;;;;;;;;;;;;;;5099745;28;19919;-81
2023/12/09 02:28:40;;;;;;;;;;;;;;;;;;5099754;28;19908;-80
2023/12/09 02:31:05;;;;;;;;;;;;;;;;;;5100114;28;19916;-80
2023/12/09 02:33:30;;;;;;;;;;;;;;;;;;5100642;28;19990;-80
2023/12/09 02:35:55;;;;;;;;;;;;;;;;;;5091322;28;19912;-80
2023/12/09 02:38:20;;;;;;;;;;;;;;;;;;5099438;28;20383;-81
2023/12/09 02:40:46;;;;;;;;;;;;;;;;;;5099984;28;19915;-80
2023/12/09 02:43:11;;;;;;;;;;;;;;;;;;5100640;28;19908;-80
2023/12/09 02:45:36;;;;;;;;;;;;;;;;;;5100210;28;19931;-79
2023/12/09 02:48:03;;;;;;;;;;;;;;;;;;5100706;28;19991;-80
2023/12/09 02:50:28;;;;;;;;;;;;;;;;;;5100133;28;19912;-80
2023/12/09 02:52:53;;;;;;;;;;;;;;;;;;5088623;28;19916;-80
2023/12/09 02:55:18;;;;;;;;;;;;;;;;;;5085742;28;19920;-80
2023/12/09 02:57:43;;;;;;;;;;;;;;;;;;5101005;28;19908;-80
2023/12/09 03:00:09;;;;;;;;;;;;;;;;;;5100552;28;20262;-81
2023/12/09 03:02:34;;;;;;;;;;;;;;;;;;5099854;28;19908;-80
2023/12/09 03:04:59;;;;;;;;;;;;;;;;;;5099767;28;19908;-80
2023/12/09 03:07:24;;;;;;;;;;;;;;;;;;5099169;28;19908;-81
2023/12/09 03:09:49;;;;;;;;;;;;;;;;;;5099399;28;19976;-80
2023/12/09 03:12:15;;;;;;;;;;;;;;;;;;5098631;28;20007;-80
2023/12/09 03:14:40;;;;;;;;;;;;;;;;;;5096781;28;19956;-81
2023/12/09 03:17:05;;;;;;;;;;;;;;;;;;5098384;28;19930;-80
2023/12/09 03:19:30;;;;;;;;;;;;;;;;;;5098491;28;19930;-81
2023/12/09 03:21:55;;;;;;;;;;;;;;;;;;5090888;28;19908;-81
2023/12/09 03:24:20;;;;;;;;;;;;;;;;;;5098912;28;19908;-81
2023/12/09 03:26:45;;;;;;;;;;;;;;;;;;5100199;28;19959;-80
2023/12/09 03:29:10;;;;;;;;;;;;;;;;;;5099856;28;19915;-81
2023/12/09 03:31:36;;;;;;;;;;;;;;;;;;5099678;28;19916;-81
2023/12/09 03:34:01;;;;;;;;;;;;;;;;;;5098735;28;19917;-80
2023/12/09 03:36:26;;;;;;;;;;;;;;;;;;5099029;28;19915;-80
2023/12/09 03:38:51;;;;;;;;;;;;;;;;;;5098577;28;19916;-80
2023/12/09 03:41:16;;;;;;;;;;;;;;;;;;5099561;28;19960;-80
2023/12/09 03:43:41;;;;;;;;;;;;;;;;;;5099966;28;19908;-81
2023/12/09 03:46:06;;;;;;;;;;;;;;;;;;5101760;28;19915;-80
2023/12/09 03:48:31;;;;;;;;;;;;;;;;;;5102357;28;19965;-80
2023/12/09 03:50:56;;;;;;;;;;;;;;;;;;5101285;28;19912;-80
2023/12/09 03:53:21;;;;;;;;;;;;;;;;;;5101250;28;20007;-80
2023/12/09 03:55:47;;;;;;;;;;;;;;;;;;5101468;28;19999;-80
2023/12/09 03:58:12;;;;;;;;;;;;;;;;;;5100878;28;19912;-81
2023/12/09 04:00:37;;;;;;;;;;;;;;;;;;5101148;28;19947;-80
2023/12/09 04:03:02;;;;;;;;;;;;;;;;;;5102594;28;19919;-80
2023/12/09 04:05:27;;;;;;;;;;;;;;;;;;5100995;28;19908;-80
2023/12/09 04:07:52;;;;;;;;;;;;;;;;;;5100402;28;19988;-81
2023/12/09 04:10:17;;;;;;;;;;;;;;;;;;5101851;28;20348;-80
2023/12/09 04:12:43;;;;;;;;;;;;;;;;;;5100716;28;19951;-81
2023/12/09 04:15:08;;;;;;;;;;;;;;;;;;5100539;28;20362;-80
2023/12/09 04:17:33;;;;;;;;;;;;;;;;;;5100426;28;19908;-81
2023/12/09 04:19:58;;;;;;;;;;;;;;;;;;5100261;28;19908;-80
2023/12/09 04:22:23;;;;;;;;;;;;;;;;;;5101535;28;19915;-81
2023/12/09 04:24:48;;;;;;;;;;;;;;;;;;5100823;28;19916;-81
2023/12/09 04:27:13;;;;;;;;;;;;;;;;;;5100748;28;20332;-80
2023/12/09 04:29:38;;;;;;;;;;;;;;;;;;5101342;28;20277;-81
2023/12/09 04:32:03;;;;;;;;;;;;;;;;;;5101241;28;19969;-81
2023/12/09 04:34:28;;;;;;;;;;;;;;;;;;5100677;28;19938;-81
2023/12/09 04:36:54;;;;;;;;;;;;;;;;;;5101057;28;19908;-80
2023/12/09 04:39:19;;;;;;;;;;;;;;;;;;5100933;28;19908;-80
2023/12/09 04:41:44;;;;;;;;;;;;;;;;;;5100386;28;19908;-80
2023/12/09 04:44:09;;;;;;;;;;;;;;;;;;5101194;28;19909;-80
2023/12/09 04:46:34;;;;;;;;;;;;;;;;;;5101014;28;19947;-80
2023/12/09 04:48:59;;;;;;;;;;;;;;;;;;5101208;28;20441;-80
2023/12/09 04:51:24;;;;;;;;;;;;;;;;;;5101445;28;19919;-81
2023/12/09 04:53:50;;;;;;;;;;;;;;;;;;5099202;28;19913;-81
2023/12/09 04:56:15;;;;;;;;;;;;;;;;;;5099749;28;19912;-80
2023/12/09 04:58:40;;;;;;;;;;;;;;;;;;5100367;28;20417;-80
2023/12/09 05:01:05;;;;;;;;;;;;;;;;;;5099863;28;20359;-80
2023/12/09 05:03:31;;;;;;;;;;;;;;;;;;5099533;28;19908;-80
2023/12/09 05:05:56;;;;;;;;;;;;;;;;;;5101411;28;19908;-80
2023/12/09 05:08:21;;;;;;;;;;;;;;;;;;5100456;28;19908;-80
2023/12/09 05:10:46;;;;;;;;;;;;;;;;;;5100722;28;19957;-81
2023/12/09 05:13:11;;;;;;;;;;;;;;;;;;5101031;28;19908;-81
2023/12/09 05:15:36;;;;;;;;;;;;;;;;;;5099295;28;19912;-80
2023/12/09 05:18:02;;;;;;;;;;;;;;;;;;5101212;28;19908;-81
2023/12/09 05:20:27;;;;;;;;;;;;;;;;;;5100556;28;19915;-81
2023/12/09 05:22:52;;;;;;;;;;;;;;;;;;5100450;28;19908;-80
2023/12/09 05:25:17;;;;;;;;;;;;;;;;;;5092297;28;19909;-80
2023/12/09 05:27:42;;;;;;;;;;;;;;;;;;5098963;28;19913;-81
2023/12/09 05:30:07;;;;;;;;;;;;;;;;;;5099265;28;19908;-81
2023/12/09 05:32:32;;;;;;;;;;;;;;;;;;5098768;28;19918;-80
2023/12/09 05:34:57;;;;;;;;;;;;;;;;;;5099887;28;19918;-80
2023/12/09 05:37:22;;;;;;;;;;;;;;;;;;5103147;28;19912;-80
2023/12/09 05:39:48;;;;;;;;;;;;;;;;;;5103784;28;19908;-81
2023/12/09 05:42:13;;;;;;;;;;;;;;;;;;5102445;28;19964;-81
2023/12/09 05:44:38;;;;;;;;;;;;;;;;;;5102755;28;19998;-81
2023/12/09 05:47:03;;;;;;;;;;;;;;;;;;5102504;28;19999;-80
2023/12/09 05:49:29;;;;;;;;;;;;;;;;;;5103074;28;19908;-80
2023/12/09 05:51:54;;;;;;;;;;;;;;;;;;5101952;28;19916;-80
2023/12/09 05:54:19;;;;;;;;;;;;;;;;;;5103551;28;19935;-81
2023/12/09 05:56:44;;;;;;;;;;;;;;;;;;5101876;28;20381;-81
2023/12/09 05:59:09;;;;;;;;;;;;;;;;;;5102241;28;20289;-81
2023/12/09 06:01:34;;;;;;;;;;;;;;;;;;5102492;28;19915;-80
2023/12/09 06:03:59;;;;;;;;;;;;;;;;;;5102479;28;19908;-80
2023/12/09 06:06:24;;;;;;;;;;;;;;;;;;5101650;28;20266;-81
2023/12/09 06:08:50;;;;;;;;;;;;;;;;;;5100844;28;19915;-81
2023/12/09 06:11:15;;;;;;;;;;;;;;;;;;5103206;28;19923;-81
2023/12/09 06:13:40;;;;;;;;;;;;;;;;;;5101776;28;20220;-81
2023/12/09 06:16:05;;;;;;;;;;;;;;;;;;5107746;28;20018;-81
2023/12/09 06:18:30;;;;;;;;;;;;;;;;;;5111186;28;19959;-81
2023/12/09 06:20:56;;;;;;;;;;;;;;;;;;5112598;28;19908;-81
2023/12/09 06:23:21;;;;;;;;;;;;;;;;;;5112631;28;19908;-80
2023/12/09 06:25:46;;;;;;;;;;;;;;;;;;5113179;28;19947;-81
2023/12/09 06:28:11;;;;;;;;;;;;;;;;;;5111640;28;19912;-81
2023/12/09 06:30:36;;;;;;;;;;;;;;;;;;5112874;28;19908;-81
2023/12/09 06:33:01;;;;;;;;;;;;;;;;;;5112718;28;19919;-80
2023/12/09 06:35:26;;;;;;;;;;;;;;;;;;5111775;28;19916;-80
2023/12/09 06:37:54;;;;;;;;;;;;;;;;;;5112727;28;19921;-80
2023/12/09 06:40:19;;;;;;;;;;;;;;;;;;5110565;28;20021;-81
2023/12/09 06:42:44;;;;;;;;;;;;;;;;;;5109523;28;19908;-81
2023/12/09 06:45:09;;;;;;;;;;;;;;;;;;5097772;28;19913;-81
2023/12/09 06:47:35;;;;;;;;;;;;;;;;;;5094524;28;19908;-84
2023/12/09 06:50:00;;;;;;;;;;;;;;;;;;5092209;28;19908;-84
2023/12/09 06:52:25;;;;;;;;;;;;;;;;;;5091974;28;19916;-84
2023/12/09 06:54:50;;;;;;;;;;;;;;;;;;5094291;28;19912;-85
2023/12/09 06:57:15;;;;;;;;;;;;;;;;;;5094487;28;19908;-84
2023/12/09 06:59:40;;;;;;;;;;;;;;;;;;5093858;28;20274;-85
2023/12/09 07:02:05;;;;;;;;;;;;;;;;;;5093416;28;19908;-84
2023/12/09 07:04:32;;;;;;;;;;;;;;;;;;5092185;28;20309;-84
2023/12/09 07:06:58;;;;;;;;;;;;;;;;;;5092407;28;19937;-79
2023/12/09 07:09:23;;;;;;;;;;;;;;;;;;5097091;28;19912;-80
2023/12/09 07:11:48;;;;;;;;;;;;;;;;;;5094793;28;20365;-79
2023/12/09 07:14:15;;;;;;;;;;;;;;;;;;5096467;28;20369;-79
2023/12/09 07:16:40;;;;;;;;;;;;;;;;;;5097258;28;19908;-78
2023/12/09 07:19:06;;;;;;;;;;;;;;;;;;5097482;28;19912;-78
2023/12/09 07:21:31;;;;;;;;;;;;;;;;;;5095340;28;19931;-79
2023/12/09 07:23:56;;;;;;;;;;;;;;;;;;5093491;28;19912;-79
2023/12/09 07:26:21;;;;;;;;;;;;;;;;;;5095909;28;19912;-78
2023/12/09 07:28:46;;;;;;;;;;;;;;;;;;5095795;28;19908;-79
2023/12/09 07:31:11;;;;;;;;;;;;;;;;;;5096121;28;19912;-78
2023/12/09 07:33:36;;;;;;;;;;;;;;;;;;5094097;28;19931;-78
2023/12/09 07:36:01;;;;;;;;;;;;;;;;;;5094333;28;19908;-78
2023/12/09 07:38:27;;;;;;;;;;;;;;;;;;5094465;28;19937;-78
2023/12/09 07:40:52;;;;;;;;;;;;;;;;;;5094762;28;20287;-78
2023/12/09 07:43:17;;;;;;;;;;;;;;;;;;5094104;28;19908;-78
2023/12/09 07:45:42;;;;;;;;;;;;;;;;;;5094581;28;19916;-78
2023/12/09 07:48:07;;;;;;;;;;;;;;;;;;5095684;28;19931;-78
2023/12/09 07:50:32;;;;;;;;;;;;;;;;;;5096662;28;19919;-78
2023/12/09 07:52:58;;;;;;;;;;;;;;;;;;5094121;28;20266;-78
2023/12/09 07:55:23;;;;;;;;;;;;;;;;;;5095888;28;20015;-79
2023/12/09 07:57:48;;;;;;;;;;;;;;;;;;5096848;28;20011;-78
2023/12/09 08:00:13;;;;;;;;;;;;;;;;;;5098012;28;19984;-78
2023/12/09 08:02:38;;;;;;;;;;;;;;;;;;5094569;28;19912;-78
2023/12/09 08:05:03;;;;;;;;;;;;;;;;;;5094611;28;19912;-79
2023/12/09 08:07:28;;;;;;;;;;;;;;;;;;5093774;28;19908;-78
2023/12/09 08:09:53;;;;;;;;;;;;;;;;;;5092574;28;20434;-78
2023/12/09 08:12:18;;;;;;;;;;;;;;;;;;5090528;28;19914;-77
2023/12/09 08:14:44;;;;;;;;;;;;;;;;;;5092037;28;19912;-77
2023/12/09 08:17:09;;;;;;;;;;;;;;;;;;5091806;28;19908;-77
2023/12/09 08:19:34;;;;;;;;;;;;;;;;;;5090122;28;20289;-77
2023/12/09 08:21:59;;;;;;;;;;;;;;;;;;5090254;28;19930;-77
2023/12/09 08:24:24;;;;;;;;;;;;;;;;;;5091622;28;19908;-77
2023/12/09 08:26:49;;;;;;;;;;;;;;;;;;5091462;28;19978;-77
2023/12/09 08:29:14;;;;;;;;;;;;;;;;;;5090729;28;19915;-77
2023/12/09 08:31:39;;;;;;;;;;;;;;;;;;5094128;28;19916;-78
2023/12/09 08:34:05;;;;;;;;;;;;;;;;;;5095905;28;20135;-77
2023/12/09 08:36:30;;;;;;;;;;;;;;;;;;5091705;28;19940;-77
2023/12/09 08:38:55;;;;;;;;;;;;;;;;;;5094760;28;20339;-77
2023/12/09 08:41:20;;;;;;;;;;;;;;;;;;5095876;28;19908;-78
2023/12/09 08:43:45;;;;;;;;;;;;;;;;;;5087201;28;20404;-77
2023/12/09 08:46:10;;;;;;;;;;;;;;;;;;5092574;28;20353;-77
2023/12/09 08:48:35;;;;;;;;;;;;;;;;;;5094847;28;19942;-77
2023/12/09 08:51:00;;;;;;;;;;;;;;;;;;5094813;28;19991;-77
2023/12/09 08:53:26;;;;;;;;;;;;;;;;;;5094718;28;19921;-77
2023/12/09 08:55:51;;;;;;;;;;;;;;;;;;5094058;28;20342;-77
2023/12/09 08:58:16;;;;;;;;;;;;;;;;;;5093178;28;19912;-77
2023/12/09 09:00:41;;;;;;;;;;;;;;;;;;5094550;28;19915;-77
2023/12/09 09:03:06;;;;;;;;;;;;;;;;;;5094723;28;20371;-77
2023/12/09 09:05:32;;;;;;;;;;;;;;;;;;5094553;28;19919;-77
2023/12/09 09:07:57;;;;;;;;;;;;;;;;;;5094490;28;19908;-77
2023/12/09 09:10:22;;;;;;;;;;;;;;;;;;5093078;28;20082;-77
2023/12/09 09:12:48;;;;;;;;;;;;;;;;;;5094414;28;19993;-77
2023/12/09 09:15:13;;;;;;;;;;;;;;;;;;5091356;28;19916;-76
2023/12/09 09:17:39;;;;;;;;;;;;;;;;;;5094346;28;19995;-77
2023/12/09 09:20:04;;;;;;;;;;;;;;;;;;5092903;28;19943;-77
2023/12/09 09:22:30;;;;;;;;;;;;;;;;;;5094422;28;20406;-77
2023/12/09 09:24:55;;;;;;;;;;;;;;;;;;5093962;28;19908;-77
2023/12/09 09:27:20;;;;;;;;;;;;;;;;;;5094193;28;19908;-77
2023/12/09 09:29:45;;;;;;;;;;;;;;;;;;5093816;28;19915;-77
2023/12/09 09:32:10;;;;;;;;;;;;;;;;;;5092763;28;19915;-77
2023/12/09 09:34:36;;;;;;;;;;;;;;;;;;5092683;28;19912;-77
2023/12/09 09:37:01;;;;;;;;;;;;;;;;;;5093947;28;19909;-77
2023/12/09 09:39:26;;;;;;;;;;;;;;;;;;5092678;28;20178;-77
2023/12/09 09:41:51;;;;;;;;;;;;;;;;;;5092148;28;19920;-77
2023/12/09 09:44:16;;;;;;;;;;;;;;;;;;5093764;28;20372;-77
2023/12/09 09:46:41;;;;;;;;;;;;;;;;;;5093659;28;20288;-77
2023/12/09 09:49:06;;;;;;;;;;;;;;;;;;5093688;28;19908;-77
2023/12/09 09:51:31;;;;;;;;;;;;;;;;;;5092177;28;19919;-77
2023/12/09 09:53:58;;;;;;;;;;;;;;;;;;5093491;28;19912;-77
2023/12/09 09:56:23;;;;;;;;;;;;;;;;;;5093652;28;19912;-77
2023/12/09 09:58:48;;;;;;;;;;;;;;;;;;5093341;28;19908;-77
2023/12/09 10:01:13;;;;;;;;;;;;;;;;;;5092147;28;19912;-77
2023/12/09 10:03:38;;;;;;;;;;;;;;;;;;5092139;28;19908;-77
2023/12/09 10:06:04;;;;;;;;;;;;;;;;;;5092062;28;19912;-77
2023/12/09 10:08:29;;;;;;;;;;;;;;;;;;5091792;28;20392;-77
2023/12/09 10:10:55;;;;;;;;;;;;;;;;;;5092983;28;19939;-77
2023/12/09 10:13:20;;;;;;;;;;;;;;;;;;5093365;28;19908;-77
2023/12/09 10:15:45;;;;;;;;;;;;;;;;;;5091843;28;19919;-77
2023/12/09 10:18:10;;;;;;;;;;;;;;;;;;5093135;28;19908;-77
2023/12/09 10:20:36;;;;;;;;;;;;;;;;;;5093096;28;19910;-77
2023/12/09 10:23:01;;;;;;;;;;;;;;;;;;5093125;28;19915;-77
2023/12/09 10:25:26;;;;;;;;;;;;;;;;;;5093154;28;19908;-77
2023/12/09 10:27:52;;;;;;;;;;;;;;;;;;5092924;28;20285;-77
2023/12/09 10:30:18;;;;;;;;;;;;;;;;;;5092832;28;19915;-77
2023/12/09 10:32:43;;;;;;;;;;;;;;;;;;5092930;28;19919;-77
2023/12/09 10:35:09;;;;;;;;;;;;;;;;;;5092891;28;19912;-77
2023/12/09 10:37:34;;;;;;;;;;;;;;;;;;5091388;28;19908;-77
2023/12/09 10:39:59;;;;;;;;;;;;;;;;;;5092669;28;19909;-77
2023/12/09 10:42:24;;;;;;;;;;;;;;;;;;5091549;28;19916;-77
2023/12/09 10:44:49;;;;;;;;;;;;;;;;;;5092824;28;20358;-77
2023/12/09 10:47:15;;;;;;;;;;;;;;;;;;5092894;28;19908;-77
2023/12/09 10:49:40;;;;;;;;;;;;;;;;;;5092600;28;19908;-77
2023/12/09 10:52:05;;;;;;;;;;;;;;;;;;5091918;28;20360;-77
2023/12/09 10:54:30;;;;;;;;;;;;;;;;;;5092704;28;19912;-77
2023/12/09 10:56:55;;;;;;;;;;;;;;;;;;5081952;28;19919;-77
2023/12/09 10:59:20;;;;;;;;;;;;;;;;;;5092356;28;20010;-77
2023/12/09 11:01:45;;;;;;;;;;;;;;;;;;5091051;28;19916;-77
2023/12/09 11:04:10;;;;;;;;;;;;;;;;;;5086885;28;19908;-77
2023/12/09 11:06:36;;;;;;;;;;;;;;;;;;5090965;28;20380;-77
2023/12/09 11:09:01;;;;;;;;;;;;;;;;;;5092053;28;19986;-77
2023/12/09 11:11:26;;;;;;;;;;;;;;;;;;5083416;28;19987;-77
2023/12/09 11:13:51;;;;;;;;;;;;;;;;;;5090433;28;19960;-77
2023/12/09 11:16:17;;;;;;;;;;;;;;;;;;5089098;28;19961;-77
2023/12/09 11:18:42;;;;;;;;;;;;;;;;;;5092060;28;19970;-77
2023/12/09 11:21:07;;;;;;;;;;;;;;;;;;5090086;28;19965;-77
2023/12/09 11:23:34;;;;;;;;;;;;;;;;;;5084325;28;19916;-77
2023/12/09 11:25:59;;;;;;;;;;;;;;;;;;5092328;28;19908;-77
2023/12/09 11:28:24;;;;;;;;;;;;;;;;;;5091526;28;19908;-75
2023/12/09 11:30:49;;;;;;;;;;;;;;;;;;5089725;28;19919;-75
2023/12/09 11:33:16;;;;;;;;;;;;;;;;;;5075745;28;19913;-75
2023/12/09 11:35:41;;;;;;;;;;;;;;;;;;5082074;28;19952;-74
2023/12/09 11:38:07;;;;;;;;;;;;;;;;;;5083906;28;20293;-74
2023/12/09 11:40:32;;;;;;;;;;;;;;;;;;5081926;28;20281;-74
2023/12/09 11:42:58;;;;;;;;;;;;;;;;;;5085016;28;19908;-74
2023/12/09 11:45:23;;;;;;;;;;;;;;;;;;5084044;28;19915;-74
2023/12/09 11:47:48;;;;;;;;;;;;;;;;;;5091841;28;19955;-75
2023/12/09 11:50:13;;;;;;;;;;;;;;;;;;5086288;28;19959;-75
2023/12/09 11:52:38;;;;;;;;;;;;;;;;;;5090703;28;19967;-74
2023/12/09 11:55:10;;;;;;;;;;;;;;;;;;5091644;28;19919;-75
2023/12/09 11:57:35;;;;;;;;;;;;;;;;;;5092103;28;19908;-75
2023/12/09 12:00:00;;;;;;;;;;;;;;;;;;5091953;28;19915;-75
2023/12/09 12:02:25;;;;;;;;;;;;;;;;;;5091824;28;19908;-75
2023/12/09 12:04:50;;;;;;;;;;;;;;;;;;5092196;28;19909;-74
2023/12/09 12:07:15;;;;;;;;;;;;;;;;;;5090410;28;19931;-72
2023/12/09 12:09:40;;;;;;;;;;;;;;;;;;5095146;28;19931;-72
2023/12/09 12:12:05;;;;;;;;;;;;;;;;;;5095425;28;19908;-72
2023/12/09 12:14:31;;;;;;;;;;;;;;;;;;5095599;28;19935;-72
2023/12/09 12:16:57;;;;;;;;;;;;;;;;;;5095702;28;19995;-72
2023/12/09 12:19:22;;;;;;;;;;;;;;;;;;5095528;28;19970;-72
2023/12/09 12:21:47;;;;;;;;;;;;;;;;;;5095205;28;20381;-72
2023/12/09 12:24:12;;;;;;;;;;;;;;;;;;5093840;28;19915;-72
2023/12/09 12:26:37;;;;;;;;;;;;;;;;;;5095301;28;19908;-72
2023/12/09 12:29:03;;;;;;;;;;;;;;;;;;5095285;28;20373;-72
2023/12/09 12:31:28;;;;;;;;;;;;;;;;;;5095198;28;19950;-72
2023/12/09 12:33:53;;;;;;;;;;;;;;;;;;5095117;28;19973;-72
2023/12/09 12:36:18;;;;;;;;;;;;;;;;;;5088642;28;19908;-72
2023/12/09 12:38:44;;;;;;;;;;;;;;;;;;5091922;28;19912;-72
2023/12/09 12:41:09;;;;;;;;;;;;;;;;;;5094912;28;19908;-72
2023/12/09 12:43:35;;;;;;;;;;;;;;;;;;5094984;28;20274;-72
2023/12/09 12:46:00;;;;;;;;;;;;;;;;;;5087293;28;19957;-72
2023/12/09 12:48:25;;;;;;;;;;;;;;;;;;5085297;28;20170;-72
2023/12/09 12:50:50;;;;;;;;;;;;;;;;;;5092082;28;19997;-72
2023/12/09 12:53:16;;;;;;;;;;;;;;;;;;5086113;28;19920;-72
2023/12/09 12:55:41;;;;;;;;;;;;;;;;;;5094526;28;20054;-72
2023/12/09 12:58:08;;;;;;;;;;;;;;;;;;5089435;28;19908;-72
2023/12/09 13:00:33;;;;;;;;;;;;;;;;;;5093297;28;20361;-72
2023/12/09 13:02:58;;;;;;;;;;;;;;;;;;5093460;28;20395;-72
2023/12/09 13:05:23;;;;;;;;;;;;;;;;;;5091885;28;20380;-72
2023/12/09 13:07:48;;;;;;;;;;;;;;;;;;5094486;28;20314;-72
2023/12/09 13:10:13;;;;;;;;;;;;;;;;;;5094302;28;19912;-73
2023/12/09 13:12:38;;;;;;;;;;;;;;;;;;5086848;28;20258;-72
2023/12/09 13:15:04;;;;;;;;;;;;;;;;;;5093633;28;20288;-76
2023/12/09 13:17:29;;;;;;;;;;;;;;;;;;5089850;28;19909;-75
2023/12/09 13:19:55;;;;;;;;;;;;;;;;;;5093001;28;19908;-76
2023/12/09 13:22:20;;;;;;;;;;;;;;;;;;5094322;28;19999;-76
2023/12/09 13:24:45;;;;;;;;;;;;;;;;;;5085994;28;20033;-75
2023/12/09 13:27:10;;;;;;;;;;;;;;;;;;5086172;28;20347;-75
2023/12/09 13:29:35;;;;;;;;;;;;;;;;;;5093958;28;19908;-75
2023/12/09 13:32:00;;;;;;;;;;;;;;;;;;5092851;28;19908;-76
2023/12/09 13:34:26;;;;;;;;;;;;;;;;;;5094451;28;19916;-75
2023/12/09 13:36:51;;;;;;;;;;;;;;;;;;5092711;28;19939;-75
2023/12/09 13:39:17;;;;;;;;;;;;;;;;;;5093958;28;20357;-75
2023/12/09 13:41:42;;;;;;;;;;;;;;;;;;5092599;28;19908;-76
2023/12/09 13:44:07;;;;;;;;;;;;;;;;;;5094057;28;19912;-76
2023/12/09 13:46:32;;;;;;;;;;;;;;;;;;5093833;28;19914;-76
2023/12/09 13:48:57;;;;;;;;;;;;;;;;;;5086086;28;20449;-76
2023/12/09 13:51:22;;;;;;;;;;;;;;;;;;5093454;28;19912;-76
2023/12/09 13:53:47;;;;;;;;;;;;;;;;;;5092331;28;19920;-76
2023/12/09 13:56:12;;;;;;;;;;;;;;;;;;5092349;28;19909;-76
2023/12/09 13:58:38;;;;;;;;;;;;;;;;;;5093211;28;20358;-75
2023/12/09 14:01:03;;;;;;;;;;;;;;;;;;5093529;28;19912;-75
2023/12/09 14:03:28;;;;;;;;;;;;;;;;;;5092055;28;20392;-75
2023/12/09 14:05:53;;;;;;;;;;;;;;;;;;5092241;28;19968;-75
2023/12/09 14:08:18;;;;;;;;;;;;;;;;;;5092078;28;19912;-75
2023/12/09 14:10:43;;;;;;;;;;;;;;;;;;5093274;28;19908;-75
2023/12/09 14:13:08;;;;;;;;;;;;;;;;;;5093395;28;19908;-76
2023/12/09 14:15:34;;;;;;;;;;;;;;;;;;5093143;28;20012;-75
2023/12/09 14:17:59;;;;;;;;;;;;;;;;;;5091874;28;20007;-75
2023/12/09 14:20:24;;;;;;;;;;;;;;;;;;5091676;28;20385;-75
2023/12/09 14:22:50;;;;;;;;;;;;;;;;;;5093048;28;19908;-75
2023/12/09 14:25:15;;;;;;;;;;;;;;;;;;5093150;28;20006;-75
2023/12/09 14:27:40;;;;;;;;;;;;;;;;;;5090778;28;20272;-75
2023/12/09 14:30:05;;;;;;;;;;;;;;;;;;5092679;28;19914;-75
2023/12/09 14:32:30;;;;;;;;;;;;;;;;;;5093027;28;19908;-75
2023/12/09 14:34:56;;;;;;;;;;;;;;;;;;5092770;28;19912;-76
2023/12/09 14:37:21;;;;;;;;;;;;;;;;;;5091395;28;19914;-75
2023/12/09 14:39:46;;;;;;;;;;;;;;;;;;5092523;28;19913;-75
2023/12/09 14:42:11;;;;;;;;;;;;;;;;;;5092670;28;20000;-76
2023/12/09 14:44:36;;;;;;;;;;;;;;;;;;5092617;28;19912;-75
2023/12/09 14:47:01;;;;;;;;;;;;;;;;;;5091471;28;19957;-76
2023/12/09 14:49:27;;;;;;;;;;;;;;;;;;5092339;28;19919;-75
2023/12/09 14:51:53;;;;;;;;;;;;;;;;;;5088599;28;19927;-75
2023/12/09 14:54:18;;;;;;;;;;;;;;;;;;5092344;28;19915;-75
2023/12/09 14:56:45;;;;;;;;;;;;;;;;;;5092068;28;20397;-75
2023/12/09 14:59:10;;;;;;;;;;;;;;;;;;5091139;28;19909;-75
2023/12/09 15:01:35;;;;;;;;;;;;;;;;;;5090652;28;19957;-75
2023/12/09 15:04:03;;;;;;;;;;;;;;;;;;5092409;28;19908;-75
2023/12/09 15:06:28;;;;;;;;;;;;;;;;;;5092345;28;19912;-76
2023/12/09 15:08:54;;;;;;;;;;;;;;;;;;5090343;28;20028;-76
2023/12/09 15:11:19;;;;;;;;;;;;;;;;;;5091765;28;20047;-75
2023/12/09 15:13:44;;;;;;;;;;;;;;;;;;5091356;28;20339;-75
2023/12/09 15:16:09;;;;;;;;;;;;;;;;;;5092101;28;20324;-76
2023/12/09 15:18:35;;;;;;;;;;;;;;;;;;5100014;28;19955;-75
2023/12/09 15:21:00;;;;;;;;;;;;;;;;;;5091624;28;20408;-75
2023/12/09 15:23:25;;;;;;;;;;;;;;;;;;5092394;28;19912;-75
2023/12/09 15:25:50;;;;;;;;;;;;;;;;;;5090642;28;19912;-75
2023/12/09 15:28:15;;;;;;;;;;;;;;;;;;5089980;28;19961;-75
2023/12/09 15:30:41;;;;;;;;;;;;;;;;;;5090092;28;19913;-75
2023/12/09 15:33:06;;;;;;;;;;;;;;;;;;5091817;28;19913;-75
2023/12/09 15:35:31;;;;;;;;;;;;;;;;;;5090286;28;20404;-75
2023/12/09 15:37:57;;;;;;;;;;;;;;;;;;5088851;28;19967;-76
2023/12/09 15:40:23;;;;;;;;;;;;;;;;;;5095595;28;19908;-75
2023/12/09 15:42:48;;;;;;;;;;;;;;;;;;5092870;28;19919;-75
2023/12/09 15:45:13;;;;;;;;;;;;;;;;;;5096178;28;19934;-75
2023/12/09 15:47:38;;;;;;;;;;;;;;;;;;5090131;28;19919;-75
2023/12/09 15:50:03;;;;;;;;;;;;;;;;;;5082889;28;19938;-75
2023/12/09 15:52:28;;;;;;;;;;;;;;;;;;5100271;28;19995;-75
2023/12/09 15:54:53;;;;;;;;;;;;;;;;;;5095996;28;19916;-75
2023/12/09 15:57:18;;;;;;;;;;;;;;;;;;5099044;28;19912;-75
2023/12/09 15:59:46;;;;;;;;;;;;;;;;;;5095578;28;19908;-75
2023/12/09 16:02:11;;;;;;;;;;;;;;;;;;5095585;28;19925;-75
2023/12/09 16:04:36;;;;;;;;;;;;;;;;;;5095075;28;19953;-75
2023/12/09 16:07:01;;;;;;;;;;;;;;;;;;5094697;28;19912;-75
2023/12/09 16:09:27;;;;;;;;;;;;;;;;;;5099673;28;19915;-75
2023/12/09 16:11:52;;;;;;;;;;;;;;;;;;5095656;28;19923;-78
2023/12/09 16:14:17;;;;;;;;;;;;;;;;;;5095629;28;19935;-75
2023/12/09 16:16:43;;;;;;;;;;;;;;;;;;5094185;28;20376;-75
2023/12/09 16:19:08;;;;;;;;;;;;;;;;;;5095451;28;19908;-75
2023/12/09 16:21:34;;;;;;;;;;;;;;;;;;5095255;28;20007;-75
2023/12/09 16:23:59;;;;;;;;;;;;;;;;;;5094198;28;20008;-75
2023/12/09 16:26:25;;;;;;;;;;;;;;;;;;5095436;28;19908;-76
2023/12/09 16:28:50;;;;;;;;;;;;;;;;;;5094598;28;20323;-75
2023/12/09 16:31:16;;;;;;;;;;;;;;;;;;5095277;28;20330;-75